createdAt,value
2023-01-19T00:00:17.195Z,6.300
2023-01-19T00:01:16.439Z,6
2023-01-19T00:02:16.226Z,6.199
2023-01-19T00:03:16.474Z,5.800
2023-01-19T00:05:16.764Z,6
2023-01-19T00:06:16.503Z,5.900
2023-01-19T00:07:16.473Z,6.199
2023-01-19T00:08:16.356Z,6.300
2023-01-19T00:09:16.204Z,5.5
2023-01-19T00:10:16.931Z,6.199
2023-01-19T00:11:16.695Z,5.5
2023-01-19T00:12:16.209Z,5.699
2023-01-19T00:13:16.044Z,5
2023-01-19T00:14:16.612Z,5.900
2023-01-19T00:15:16.546Z,5.800
2023-01-19T00:17:16.555Z,5.599
2023-01-19T00:18:16.100Z,5.5
2023-01-19T00:19:16.463Z,5.699
2023-01-19T00:20:16.479Z,5.300
2023-01-19T00:21:16.526Z,5.800
2023-01-19T00:22:16.301Z,5.699
2023-01-19T00:24:16.665Z,5.800
2023-01-19T00:25:16.348Z,5.699
2023-01-19T00:26:16.388Z,5.599
2023-01-19T00:27:16.437Z,6
2023-01-19T00:28:16.399Z,5.699
2023-01-19T00:29:16.264Z,5.900
2023-01-19T00:30:16.499Z,6
2023-01-19T00:32:16.046Z,5.599
2023-01-19T00:33:16.595Z,5.800
2023-01-19T00:34:16.247Z,5.5
2023-01-19T00:35:16.208Z,5.300
2023-01-19T00:36:16.333Z,5
2023-01-19T00:37:16.258Z,4.699
2023-01-19T00:38:16.528Z,5.199
2023-01-19T00:39:16.395Z,5.099
2023-01-19T00:40:16.718Z,4.5
2023-01-19T00:42:16.731Z,4.699
2023-01-19T00:43:16.252Z,4.199
2023-01-19T00:46:16.412Z,4.099
2023-01-19T00:47:16.218Z,4.199
2023-01-19T00:49:16.146Z,3.599
2023-01-19T00:50:16.954Z,4
2023-01-19T00:51:16.324Z,3.799
2023-01-19T00:52:15.955Z,3.5
2023-01-19T00:53:16.530Z,3.599
2023-01-19T00:54:16.153Z,3.700
2023-01-19T00:55:16.455Z,3.099
2023-01-19T00:56:16.109Z,3.5
2023-01-19T00:57:16.290Z,3.299
2023-01-19T00:59:16.614Z,3.099
2023-01-19T01:00:16.883Z,2.900
2023-01-19T01:01:18.279Z,3
2023-01-19T01:03:16.559Z,2.700
2023-01-19T01:05:16.256Z,2.799
2023-01-19T01:07:16.244Z,2.5
2023-01-19T01:08:16.011Z,2.799
2023-01-19T01:09:16.684Z,2.599
2023-01-19T01:11:15.892Z,2.700
2023-01-19T01:12:16.317Z,2.5
2023-01-19T01:13:21.218Z,2.700
2023-01-19T01:14:16.116Z,2.400
2023-01-19T01:15:16.310Z,2.299
2023-01-19T01:17:16.037Z,2.099
2023-01-19T01:18:16.556Z,2.299
2023-01-19T01:21:16.021Z,2.400
2023-01-19T01:23:16.109Z,2.299
2023-01-19T01:24:16.378Z,2.099
2023-01-19T01:26:16.749Z,2.400
2023-01-19T01:27:16.465Z,2.299
2023-01-19T01:29:16.420Z,2.5
2023-01-19T01:30:16.561Z,2.299
2023-01-19T01:31:16.594Z,2.400
2023-01-19T01:32:16.751Z,2.299
2023-01-19T01:33:39.791Z,2.5
2023-01-19T01:34:16.517Z,2.700
2023-01-19T01:35:16.503Z,2.400
2023-01-19T01:36:16.575Z,2.299
2023-01-19T01:37:16.472Z,2.200
2023-01-19T01:38:16.692Z,2.099
2023-01-19T01:39:17.125Z,2.5
2023-01-19T01:40:16.719Z,2.299
2023-01-19T01:41:16.384Z,2.5
2023-01-19T01:42:16.255Z,2.200
2023-01-19T01:43:16.437Z,2.5
2023-01-19T01:44:16.134Z,2.400
2023-01-19T01:46:16.740Z,2.5
2023-01-19T01:47:16.459Z,2.400
2023-01-19T01:50:16.214Z,2.299
2023-01-19T01:51:15.862Z,2.400
2023-01-19T01:52:16.228Z,2.299
2023-01-19T01:53:16.437Z,2.400
2023-01-19T01:54:16.002Z,2.299
2023-01-19T01:55:16.621Z,2.200
2023-01-19T01:56:15.851Z,2.5
2023-01-19T01:57:16.260Z,2.400
2023-01-19T01:58:16.318Z,2.5
2023-01-19T01:59:15.962Z,2.400
2023-01-19T02:00:16.680Z,2.5
2023-01-19T02:01:16.304Z,2.299
2023-01-19T02:03:16.536Z,2.5
2023-01-19T02:04:16.157Z,2.099
2023-01-19T02:05:16.204Z,2.5
2023-01-19T02:06:15.967Z,2.400
2023-01-19T02:07:16.433Z,2.5
2023-01-19T02:09:16.456Z,2.599
2023-01-19T02:10:15.952Z,2.700
2023-01-19T02:11:16.381Z,2.799
2023-01-19T02:12:15.959Z,2.599
2023-01-19T02:13:16.683Z,2.5
2023-01-19T02:14:16.424Z,2.700
2023-01-19T02:15:16.461Z,2.299
2023-01-19T02:16:16.133Z,2.5
2023-01-19T02:17:15.920Z,2.799
2023-01-19T02:18:16.250Z,2.599
2023-01-19T02:21:16.099Z,3
2023-01-19T02:22:16.018Z,2.799
2023-01-19T02:24:15.967Z,2.700
2023-01-19T02:25:16.647Z,2.799
2023-01-19T02:26:16.366Z,2.700
2023-01-19T02:27:15.872Z,2.900
2023-01-19T02:28:16.493Z,3.099
2023-01-19T02:29:16.196Z,2.700
2023-01-19T02:30:16.471Z,2.900
2023-01-19T02:32:16.139Z,3
2023-01-19T02:33:15.951Z,2.799
2023-01-19T02:34:16.256Z,3
2023-01-19T02:36:16.238Z,2.900
2023-01-19T02:37:16.027Z,3.099
2023-01-19T02:38:16.693Z,3.299
2023-01-19T02:39:16.463Z,3.099
2023-01-19T02:40:16.177Z,3.200
2023-01-19T02:42:16.785Z,3.299
2023-01-19T02:44:16.438Z,3.200
2023-01-19T02:46:16.119Z,3.299
2023-01-19T02:47:15.918Z,3.200
2023-01-19T02:49:16.148Z,3.400
2023-01-19T02:51:16.394Z,3.5
2023-01-19T02:52:16.109Z,3.400
2023-01-19T02:53:16.220Z,3.200
2023-01-19T02:54:16.329Z,3.400
2023-01-19T02:55:16.137Z,3.299
2023-01-19T02:56:16.232Z,3.5
2023-01-19T02:57:16.335Z,3.400
2023-01-19T02:59:16.033Z,3.5
2023-01-19T03:01:16.701Z,3.400
2023-01-19T03:02:16.410Z,3.599
2023-01-19T03:03:16.412Z,3.400
2023-01-19T03:04:16.192Z,3.700
2023-01-19T03:05:15.998Z,3.400
2023-01-19T03:06:16.377Z,3.799
2023-01-19T03:07:15.975Z,3.5
2023-01-19T03:08:16.335Z,3.599
2023-01-19T03:09:15.954Z,3.5
2023-01-19T03:11:16.254Z,3.099
2023-01-19T03:12:16.200Z,3.5
2023-01-19T03:13:16.184Z,3.299
2023-01-19T03:15:16.510Z,3.5
2023-01-19T03:16:16.320Z,3.299
2023-01-19T03:17:16.035Z,3.099
2023-01-19T03:18:16.130Z,3.299
2023-01-19T03:19:16.460Z,3.200
2023-01-19T03:24:16.452Z,3
2023-01-19T03:25:16.383Z,3.700
2023-01-19T03:26:16.141Z,3.099
2023-01-19T03:28:16.049Z,3
2023-01-19T03:29:16.351Z,3.299
2023-01-19T03:30:16.276Z,2.900
2023-01-19T03:31:16.199Z,3.200
2023-01-19T03:32:16.429Z,3
2023-01-19T03:33:16.606Z,3.5
2023-01-19T03:34:16.574Z,3.799
2023-01-19T03:35:16.213Z,3.200
2023-01-19T03:37:16.637Z,3.099
2023-01-19T03:38:16.215Z,3.5
2023-01-19T03:39:16.158Z,3.200
2023-01-19T03:41:16.644Z,3.099
2023-01-19T03:42:16.400Z,3.299
2023-01-19T03:43:16.531Z,3.099
2023-01-19T03:44:15.956Z,3.200
2023-01-19T03:45:16.302Z,2.900
2023-01-19T03:46:15.974Z,3.099
2023-01-19T03:47:16.097Z,2.900
2023-01-19T03:48:16.629Z,3.299
2023-01-19T03:49:16.471Z,3
2023-01-19T03:50:16.290Z,3.099
2023-01-19T03:52:16.306Z,2.900
2023-01-19T03:53:16.552Z,2.799
2023-01-19T03:54:16.491Z,3.299
2023-01-19T03:55:16.273Z,3.200
2023-01-19T03:56:16.568Z,3
2023-01-19T03:57:16.456Z,3.5
2023-01-19T03:58:16.008Z,3
2023-01-19T03:59:16.090Z,3.200
2023-01-19T04:00:17.242Z,3.400
2023-01-19T04:01:16.495Z,3.200
2023-01-19T04:02:16.616Z,3.400
2023-01-19T04:03:16.381Z,3
2023-01-19T04:04:16.447Z,3.200
2023-01-19T04:05:16.601Z,3
2023-01-19T04:06:16.488Z,3.200
2023-01-19T04:07:16.512Z,3.099
2023-01-19T04:08:16.416Z,3.200
2023-01-19T04:09:18.571Z,3.299
2023-01-19T04:12:17.022Z,2.900
2023-01-19T04:13:16.555Z,3
2023-01-19T04:14:17.030Z,3.200
2023-01-19T04:15:16.774Z,3.099
2023-01-19T04:16:16.920Z,3.299
2023-01-19T04:17:16.730Z,3.099
2023-01-19T04:18:17.082Z,3.5
2023-01-19T04:19:16.397Z,3.400
2023-01-19T04:20:16.612Z,3.099
2023-01-19T04:21:17.066Z,3.299
2023-01-19T04:22:17.131Z,3.200
2023-01-19T04:23:16.868Z,3.299
2023-01-19T04:24:17.048Z,3.099
2023-01-19T04:25:16.503Z,3.200
2023-01-19T04:26:16.888Z,3
2023-01-19T04:28:16.508Z,3.099
2023-01-19T04:30:17.070Z,3.400
2023-01-19T04:31:16.301Z,3.099
2023-01-19T04:32:16.538Z,3.299
2023-01-19T04:33:16.327Z,3.400
2023-01-19T04:35:16.238Z,3.200
2023-01-19T04:36:16.105Z,3.299
2023-01-19T04:37:16.364Z,3.099
2023-01-19T04:38:16.148Z,3
2023-01-19T04:39:16.085Z,3.299
2023-01-19T04:41:16.408Z,3.099
2023-01-19T04:43:16.229Z,3.299
2023-01-19T04:44:16.164Z,3.099
2023-01-19T04:45:16.860Z,3.299
2023-01-19T04:46:16.534Z,3.200
2023-01-19T04:47:16.756Z,3.299
2023-01-19T04:48:16.414Z,3.200
2023-01-19T04:49:16.451Z,3.099
2023-01-19T04:52:16.082Z,3.200
2023-01-19T04:54:16.514Z,3.400
2023-01-19T04:55:16.797Z,3.200
2023-01-19T04:56:16.378Z,3.299
2023-01-19T04:57:16.575Z,3.400
2023-01-19T04:58:16.175Z,3.099
2023-01-19T04:59:16.492Z,3.299
2023-01-19T05:02:16.820Z,3.400
2023-01-19T05:03:16.832Z,3.299
2023-01-19T05:04:16.347Z,3.200
2023-01-19T05:05:16.761Z,3.099
2023-01-19T05:06:16.411Z,2.900
2023-01-19T05:07:16.557Z,3.400
2023-01-19T05:08:16.509Z,3
2023-01-19T05:09:16.656Z,3.299
2023-01-19T05:10:16.659Z,3
2023-01-19T05:11:16.599Z,3.400
2023-01-19T05:12:16.496Z,3.200
2023-01-19T05:13:16.562Z,3.099
2023-01-19T05:14:16.400Z,3.599
2023-01-19T05:15:16.620Z,2.900
2023-01-19T05:16:15.528Z,3.099
2023-01-19T05:18:16.650Z,3.299
2023-01-19T05:19:16.303Z,3.200
2023-01-19T05:20:16.357Z,3.5
2023-01-19T05:21:16.455Z,3.099
2023-01-19T05:22:16.364Z,3
2023-01-19T05:23:16.350Z,3.400
2023-01-19T05:26:16.125Z,3.299
2023-01-19T05:27:16.196Z,3.400
2023-01-19T05:28:16.877Z,3.5
2023-01-19T05:29:16.659Z,3.599
2023-01-19T05:30:16.611Z,3.299
2023-01-19T05:31:18.593Z,3.200
2023-01-19T05:32:16.859Z,3.400
2023-01-19T05:33:16.919Z,3.5
2023-01-19T05:35:20.191Z,3.799
2023-01-19T05:36:16.640Z,3.5
2023-01-19T05:38:20.856Z,3.400
2023-01-19T05:40:16.400Z,3.5
2023-01-19T05:41:16.527Z,3.400
2023-01-19T05:42:16.392Z,3.799
2023-01-19T05:43:15.679Z,3.200
2023-01-19T05:44:16.600Z,3.700
2023-01-19T05:45:16.931Z,3.5
2023-01-19T05:46:16.795Z,3.599
2023-01-19T05:47:16.628Z,3.700
2023-01-19T05:48:16.665Z,3.599
2023-01-19T05:49:16.301Z,3.5
2023-01-19T05:50:16.054Z,3.700
2023-01-19T05:51:16.655Z,3.900
2023-01-19T05:52:16.461Z,3.700
2023-01-19T05:53:16.227Z,3.799
2023-01-19T05:54:16.050Z,3.299
2023-01-19T05:55:16.843Z,3.400
2023-01-19T05:56:16.614Z,3.900
2023-01-19T05:57:16.342Z,3.599
2023-01-19T05:59:16.367Z,3.5
2023-01-19T06:01:21.301Z,3.200
2023-01-19T06:02:16.260Z,3.700
2023-01-19T06:03:16.623Z,3.799
2023-01-19T06:04:16.666Z,3.900
2023-01-19T06:05:16.775Z,3.599
2023-01-19T06:06:16.680Z,3.700
2023-01-19T06:08:16.666Z,3.599
2023-01-19T06:09:16.563Z,3.799
2023-01-19T06:11:16.268Z,3.400
2023-01-19T06:12:16.734Z,3.799
2023-01-19T06:13:16.509Z,3.700
2023-01-19T06:14:16.367Z,3.5
2023-01-19T06:15:16.473Z,3.799
2023-01-19T06:16:16.406Z,3.5
2023-01-19T06:18:16.724Z,3.700
2023-01-19T06:19:16.704Z,3.900
2023-01-19T06:20:16.919Z,3.799
2023-01-19T06:21:16.970Z,4
2023-01-19T06:22:16.758Z,3.799
2023-01-19T06:23:16.664Z,4.099
2023-01-19T06:24:16.397Z,3.799
2023-01-19T06:25:16.755Z,3.5
2023-01-19T06:26:16.530Z,3.700
2023-01-19T06:27:16.662Z,3.900
2023-01-19T06:28:16.492Z,3.700
2023-01-19T06:29:16.621Z,4
2023-01-19T06:30:16.720Z,4.099
2023-01-19T06:32:16.577Z,4.199
2023-01-19T06:33:16.442Z,3.900
2023-01-19T06:34:16.425Z,4.099
2023-01-19T06:36:16.362Z,4.5
2023-01-19T06:37:16.345Z,4.300
2023-01-19T06:38:16.276Z,4.5
2023-01-19T06:40:16.702Z,4.300
2023-01-19T06:42:16.737Z,4.699
2023-01-19T06:43:16.921Z,4.800
2023-01-19T06:44:16.876Z,4.599
2023-01-19T06:46:16.307Z,4.800
2023-01-19T06:47:16.648Z,4.599
2023-01-19T06:48:16.483Z,4.5
2023-01-19T06:50:16.600Z,4.900
2023-01-19T06:51:16.612Z,4.699
2023-01-19T06:52:16.461Z,4.300
2023-01-19T06:53:16.125Z,4.699
2023-01-19T06:54:16.536Z,4.900
2023-01-19T06:55:16.466Z,4.800
2023-01-19T06:56:16.132Z,5
2023-01-19T06:57:16.406Z,4.5
2023-01-19T06:58:16.366Z,4.800
2023-01-19T07:00:17.094Z,5.099
2023-01-19T07:01:16.340Z,4.699
2023-01-19T07:02:27.061Z,4.900
2023-01-19T07:03:16.509Z,4.5
2023-01-19T07:04:16.345Z,4.800
2023-01-19T07:05:16.412Z,5
2023-01-19T07:06:16.304Z,4.599
2023-01-19T07:07:16.333Z,4.5
2023-01-19T07:08:16.270Z,4.699
2023-01-19T07:09:17.090Z,4.300
2023-01-19T07:10:16.254Z,4.800
2023-01-19T07:11:26.681Z,4.599
2023-01-19T07:12:16.581Z,4.699
2023-01-19T07:13:16.756Z,4.900
2023-01-19T07:14:16.763Z,5.400
2023-01-19T07:15:16.763Z,5.199
2023-01-19T07:16:16.434Z,5
2023-01-19T07:17:16.819Z,5.099
2023-01-19T07:19:16.708Z,5.199
2023-01-19T07:21:16.675Z,4.599
2023-01-19T07:22:16.366Z,5.300
2023-01-19T07:23:16.306Z,5.599
2023-01-19T07:24:15.987Z,5.400
2023-01-19T07:25:16.921Z,5.699
2023-01-19T07:26:16.510Z,6.099
2023-01-19T07:27:16.335Z,5.800
2023-01-19T07:28:16.499Z,6
2023-01-19T07:29:16.407Z,5.599
2023-01-19T07:30:16.714Z,6.400
2023-01-19T07:31:16.486Z,5.599
2023-01-19T07:32:16.813Z,6.300
2023-01-19T07:33:16.818Z,5.900
2023-01-19T07:34:16.400Z,5.800
2023-01-19T07:35:16.487Z,5.699
2023-01-19T07:36:16.030Z,5.300
2023-01-19T07:37:16.880Z,6
2023-01-19T07:38:16.913Z,6.300
2023-01-19T07:39:16.777Z,5.800
2023-01-19T07:40:16.701Z,5.5
2023-01-19T07:41:16.629Z,5.400
2023-01-19T07:42:16.131Z,5.5
2023-01-19T07:43:16.300Z,6.099
2023-01-19T07:44:16.244Z,6
2023-01-19T07:45:16.318Z,6.199
2023-01-19T07:46:16.258Z,6
2023-01-19T07:47:16.386Z,5.5
2023-01-19T07:48:16.433Z,5.800
2023-01-19T07:49:16.539Z,6.199
2023-01-19T07:50:16.467Z,5.400
2023-01-19T07:51:16.362Z,5.699
2023-01-19T07:52:16.491Z,5.800
2023-01-19T07:53:16.381Z,5.900
2023-01-19T07:54:16.351Z,6.400
2023-01-19T07:55:16.503Z,6.300
2023-01-19T07:56:16.219Z,6.099
2023-01-19T07:57:16.330Z,6.5
2023-01-19T07:58:16.426Z,6.199
2023-01-19T07:59:16.387Z,5.599
2023-01-19T08:00:17.000Z,6.199
2023-01-19T08:01:16.493Z,6.099
2023-01-19T08:02:17.400Z,6.400
2023-01-19T08:03:16.537Z,6.800
2023-01-19T08:04:16.148Z,7
2023-01-19T08:05:16.456Z,6.900
2023-01-19T08:06:16.182Z,6.5
2023-01-19T08:07:16.441Z,6.300
2023-01-19T08:08:16.021Z,6.5
2023-01-19T08:10:16.273Z,6.300
2023-01-19T08:11:16.318Z,7.099
2023-01-19T08:12:16.146Z,6.5
2023-01-19T08:13:16.442Z,6.400
2023-01-19T08:14:16.328Z,6.300
2023-01-19T08:15:16.236Z,6.400
2023-01-19T08:16:16.451Z,6.699
2023-01-19T08:17:16.410Z,6
2023-01-19T08:18:16.295Z,6.599
2023-01-19T08:19:16.428Z,5.800
2023-01-19T08:20:16.168Z,6.300
2023-01-19T08:22:16.008Z,6.099
2023-01-19T08:23:16.460Z,6
2023-01-19T08:24:16.552Z,5.800
2023-01-19T08:25:16.835Z,6.699
2023-01-19T08:26:16.676Z,6.300
2023-01-19T08:27:16.762Z,6.400
2023-01-19T08:28:16.555Z,5.900
2023-01-19T08:29:16.943Z,5.800
2023-01-19T08:30:22.036Z,6.099
2023-01-19T08:31:21.136Z,6
2023-01-19T08:32:16.893Z,6.400
2023-01-19T08:33:16.509Z,6.199
2023-01-19T08:34:16.677Z,6.599
2023-01-19T08:35:16.664Z,6.199
2023-01-19T08:36:16.458Z,7
2023-01-19T08:37:16.717Z,6.699
2023-01-19T08:38:16.680Z,6.800
2023-01-19T08:39:17.345Z,6.599
2023-01-19T08:40:16.714Z,6.300
2023-01-19T08:41:17.002Z,5.900
2023-01-19T08:43:17.134Z,6.300
2023-01-19T08:44:16.304Z,6.099
2023-01-19T08:45:16.668Z,6
2023-01-19T08:47:16.905Z,6.5
2023-01-19T08:48:16.381Z,5.800
2023-01-19T08:49:17.045Z,6.599
2023-01-19T08:50:17.270Z,5.800
2023-01-19T08:51:16.839Z,6.400
2023-01-19T08:52:16.871Z,6
2023-01-19T08:53:17.063Z,6.099
2023-01-19T08:55:17.191Z,6.199
2023-01-19T08:56:16.819Z,6.099
2023-01-19T08:57:17.067Z,6
2023-01-19T08:58:16.433Z,6.5
2023-01-19T08:59:16.948Z,6
2023-01-19T09:00:16.830Z,6.300
2023-01-19T09:01:17.268Z,6.599
2023-01-19T09:02:16.955Z,6.300
2023-01-19T09:03:16.708Z,6.5
2023-01-19T09:04:16.830Z,7
2023-01-19T09:05:17.313Z,5.599
2023-01-19T09:06:17.126Z,6.199
2023-01-19T09:07:16.811Z,6.5
2023-01-19T09:08:17.344Z,6.300
2023-01-19T09:09:16.975Z,5.900
2023-01-19T09:11:17.007Z,6
2023-01-19T09:13:16.783Z,5.699
2023-01-19T09:14:17.460Z,5.599
2023-01-19T09:15:17.083Z,5.5
2023-01-19T09:16:17.131Z,5.900
2023-01-19T09:17:16.830Z,5.5
2023-01-19T09:18:17.138Z,6
2023-01-19T09:19:17.391Z,5.900
2023-01-19T09:20:16.168Z,6
2023-01-19T09:21:16.733Z,6.300
2023-01-19T09:23:17.035Z,5.900
2023-01-19T09:24:17.007Z,6.099
2023-01-19T09:25:16.756Z,6.199
2023-01-19T09:28:16.700Z,5.800
2023-01-19T09:29:16.812Z,5.900
2023-01-19T09:30:17.193Z,6.199
2023-01-19T09:31:16.949Z,5.900
2023-01-19T09:32:16.899Z,6
2023-01-19T09:33:16.991Z,5.699
2023-01-19T09:34:16.674Z,6.199
2023-01-19T09:35:16.742Z,6.300
2023-01-19T09:36:16.840Z,5.5
2023-01-19T09:37:17.306Z,5.900
2023-01-19T09:38:16.982Z,5.800
2023-01-19T09:40:17.176Z,6
2023-01-19T09:41:18.928Z,6.099
2023-01-19T09:42:16.501Z,5.900
2023-01-19T09:43:16.899Z,6.5
2023-01-19T09:44:17.015Z,6.099
2023-01-19T09:45:17.515Z,5.599
2023-01-19T09:46:16.957Z,6.099
2023-01-19T09:48:16.564Z,6.800
2023-01-19T09:49:16.856Z,6.300
2023-01-19T09:50:16.579Z,6.400
2023-01-19T09:53:17.270Z,6
2023-01-19T09:54:17.376Z,6.099
2023-01-19T09:55:17.077Z,6.400
2023-01-19T09:57:17.032Z,6.199
2023-01-19T09:58:16.812Z,6.599
2023-01-19T09:59:17.012Z,6.5
2023-01-19T10:00:17.133Z,6.599
2023-01-19T10:01:16.753Z,6.199
2023-01-19T10:02:17.218Z,6.5
2023-01-19T10:03:16.538Z,6.699
2023-01-19T10:05:17.241Z,6.400
2023-01-19T10:06:16.915Z,6.300
2023-01-19T10:07:16.612Z,6.699
2023-01-19T10:08:16.648Z,6.400
2023-01-19T10:09:16.625Z,6.5
2023-01-19T10:10:16.580Z,6.599
2023-01-19T10:12:19.098Z,6.5
2023-01-19T10:13:16.937Z,6.599
2023-01-19T10:14:16.883Z,6.900
2023-01-19T10:15:17.029Z,6.5
2023-01-19T10:16:16.721Z,6.800
2023-01-19T10:17:16.861Z,6.5
2023-01-19T10:18:17.050Z,6.699
2023-01-19T10:19:16.356Z,6.900
2023-01-19T10:20:16.963Z,6.800
2023-01-19T10:21:16.915Z,6.699
2023-01-19T10:22:16.491Z,6.300
2023-01-19T10:23:16.453Z,7.099
2023-01-19T10:24:16.468Z,6.300
2023-01-19T10:25:16.937Z,6.099
2023-01-19T10:26:17.263Z,6.599
2023-01-19T10:27:16.407Z,6.5
2023-01-19T10:28:16.441Z,6.599
2023-01-19T10:29:16.618Z,7.599
2023-01-19T10:30:17.352Z,8.100
2023-01-19T10:31:17.018Z,8
2023-01-19T10:32:16.662Z,7.900
2023-01-19T10:33:17.499Z,7
2023-01-19T10:34:19.806Z,6.699
2023-01-19T10:35:17.060Z,7.099
2023-01-19T10:36:16.688Z,6.900
2023-01-19T10:37:17.278Z,6.599
2023-01-19T10:38:16.512Z,6.699
2023-01-19T10:39:16.701Z,6.300
2023-01-19T10:40:17.183Z,7
2023-01-19T10:41:16.584Z,6.900
2023-01-19T10:42:16.735Z,7.300
2023-01-19T10:43:17.179Z,6.800
2023-01-19T10:45:17.511Z,7.099
2023-01-19T10:46:16.806Z,7.599
2023-01-19T10:47:16.588Z,7.699
2023-01-19T10:48:16.531Z,7.099
2023-01-19T10:51:16.423Z,6.5
2023-01-19T10:52:18.865Z,6.300
2023-01-19T10:53:16.741Z,5.900
2023-01-19T10:54:16.893Z,5.599
2023-01-19T10:55:17.306Z,6
2023-01-19T10:56:16.722Z,6.099
2023-01-19T10:57:21.608Z,6
2023-01-19T10:58:18.823Z,6.099
2023-01-19T10:59:22.037Z,5.800
2023-01-19T11:00:17.249Z,6.5
2023-01-19T11:01:24.983Z,6.300
2023-01-19T11:02:17.089Z,6.199
2023-01-19T11:03:17.007Z,6.099
2023-01-19T11:04:16.752Z,6
2023-01-19T11:05:17.260Z,6.300
2023-01-19T11:06:16.924Z,6.099
2023-01-19T11:09:31.327Z,6.199
2023-01-19T11:10:16.483Z,6
2023-01-19T11:11:16.632Z,5.900
2023-01-19T11:12:17.036Z,6
2023-01-19T11:13:31.131Z,5.599
2023-01-19T11:14:17.055Z,5.699
2023-01-19T11:15:16.498Z,5.400
2023-01-19T11:16:16.575Z,5.699
2023-01-19T11:17:16.891Z,5.599
2023-01-19T11:18:16.925Z,5.699
2023-01-19T11:19:16.715Z,6
2023-01-19T11:20:16.791Z,5.699
2023-01-19T11:21:17.300Z,6.199
2023-01-19T11:22:17.173Z,6.400
2023-01-19T11:23:16.500Z,5.699
2023-01-19T11:24:16.722Z,6.199
2023-01-19T11:25:17.233Z,5.5
2023-01-19T11:27:16.739Z,5.699
2023-01-19T11:28:17.023Z,5.900
2023-01-19T11:29:16.798Z,5.5
2023-01-19T11:30:17.167Z,5.199
2023-01-19T11:31:16.842Z,5.5
2023-01-19T11:32:16.579Z,5.300
2023-01-19T11:33:17.225Z,5.099
2023-01-19T11:34:16.758Z,5.400
2023-01-19T11:35:17.289Z,5.199
2023-01-19T11:36:16.815Z,5
2023-01-19T11:38:17.085Z,5.199
2023-01-19T11:39:16.883Z,4.800
2023-01-19T11:42:16.951Z,5
2023-01-19T11:43:17.195Z,4.599
2023-01-19T11:44:16.375Z,4.699
2023-01-19T11:45:16.951Z,4.599
2023-01-19T11:47:17.033Z,4.300
2023-01-19T11:48:16.590Z,4.699
2023-01-19T11:49:17.134Z,4.800
2023-01-19T11:50:16.839Z,4.699
2023-01-19T11:52:17.182Z,4.400
2023-01-19T11:54:17.224Z,4.599
2023-01-19T11:55:17.160Z,4.900
2023-01-19T11:56:16.980Z,4.699
2023-01-19T11:58:17.111Z,4.800
2023-01-19T11:59:17.167Z,4.900
2023-01-19T12:00:17.395Z,5
2023-01-19T12:01:17.053Z,4.800
2023-01-19T12:02:16.448Z,4.5
2023-01-19T12:04:16.807Z,4.900
2023-01-19T12:05:17.494Z,4.199
2023-01-19T12:06:16.829Z,4.099
2023-01-19T12:07:16.993Z,4.5
2023-01-19T12:08:16.444Z,4.400
2023-01-19T12:10:17.398Z,4.199
2023-01-19T12:11:16.611Z,4.300
2023-01-19T12:12:17.168Z,4.199
2023-01-19T12:13:16.704Z,4.599
2023-01-19T12:14:16.814Z,4.099
2023-01-19T12:15:16.735Z,4.300
2023-01-19T12:16:16.914Z,4.199
2023-01-19T12:17:17.391Z,4.099
2023-01-19T12:18:16.669Z,4
2023-01-19T12:19:16.898Z,4.400
2023-01-19T12:21:16.895Z,4.599
2023-01-19T12:22:17.096Z,4.099
2023-01-19T12:23:16.847Z,3.799
2023-01-19T12:24:17.206Z,4.099
2023-01-19T12:25:17.066Z,4.199
2023-01-19T12:26:16.682Z,4.099
2023-01-19T12:27:17.113Z,3.599
2023-01-19T12:28:16.354Z,4.199
2023-01-19T12:29:16.643Z,4.300
2023-01-19T12:30:16.759Z,4.5
2023-01-19T12:31:16.860Z,4.599
2023-01-19T12:32:16.679Z,4.699
2023-01-19T12:33:17.249Z,4.099
2023-01-19T12:34:15.911Z,4.300
2023-01-19T12:35:16.928Z,4
2023-01-19T12:37:17.127Z,4.5
2023-01-19T12:38:16.752Z,4.699
2023-01-19T12:39:17.101Z,4.400
2023-01-19T12:40:16.987Z,4.199
2023-01-19T12:41:16.775Z,3.799
2023-01-19T12:43:17.491Z,4.400
2023-01-19T12:44:16.740Z,3.900
2023-01-19T12:45:16.983Z,4
2023-01-19T12:46:16.055Z,3.900
2023-01-19T12:47:16.751Z,4.400
2023-01-19T12:48:16.868Z,4.199
2023-01-19T12:49:17.408Z,4
2023-01-19T12:50:16.941Z,3.799
2023-01-19T12:51:16.799Z,4
2023-01-19T12:53:16.591Z,3.599
2023-01-19T12:54:16.379Z,4.199
2023-01-19T12:55:17.071Z,4.099
2023-01-19T12:56:16.522Z,4.199
2023-01-19T12:57:16.856Z,4.5
2023-01-19T12:58:16.768Z,4
2023-01-19T12:59:17.001Z,4.099
2023-01-19T13:00:18.939Z,4.199
2023-01-19T13:01:17.249Z,4
2023-01-19T13:02:16.844Z,4.099
2023-01-19T13:03:17.164Z,4.199
2023-01-19T13:04:16.593Z,3.900
2023-01-19T13:05:17.033Z,3.799
2023-01-19T13:06:16.664Z,4.300
2023-01-19T13:07:16.862Z,3.700
2023-01-19T13:08:16.773Z,4.099
2023-01-19T13:11:16.932Z,4.300
2023-01-19T13:12:16.605Z,3.799
2023-01-19T13:13:16.923Z,3.700
2023-01-19T13:14:16.810Z,3.900
2023-01-19T13:15:17.438Z,4.099
2023-01-19T13:16:16.593Z,3.900
2023-01-19T13:17:16.842Z,3.799
2023-01-19T13:18:17.265Z,3.700
2023-01-19T13:19:16.575Z,3.599
2023-01-19T13:20:17.155Z,3.5
2023-01-19T13:21:16.645Z,3.200
2023-01-19T13:22:17.213Z,3.799
2023-01-19T13:23:16.857Z,3.5
2023-01-19T13:24:17.012Z,3.799
2023-01-19T13:25:16.778Z,3.5
2023-01-19T13:26:24.381Z,3.200
2023-01-19T13:27:16.696Z,3.299
2023-01-19T13:28:16.694Z,2.900
2023-01-19T13:29:17.118Z,3.299
2023-01-19T13:30:16.797Z,3
2023-01-19T13:31:17.200Z,3.200
2023-01-19T13:32:17.288Z,3.099
2023-01-19T13:35:17.407Z,2.599
2023-01-19T13:36:16.339Z,2.700
2023-01-19T13:37:16.383Z,2.900
2023-01-19T13:39:18.578Z,3.099
2023-01-19T13:42:16.678Z,3.5
2023-01-19T13:43:17.249Z,3.200
2023-01-19T13:44:16.784Z,3.400
2023-01-19T13:45:16.833Z,3.700
2023-01-19T13:46:17.012Z,3.5
2023-01-19T13:47:17.638Z,3.299
2023-01-19T13:48:16.553Z,3.700
2023-01-19T13:49:16.762Z,3.599
2023-01-19T13:50:17.043Z,3.5
2023-01-19T13:52:16.666Z,3.400
2023-01-19T13:53:16.821Z,3.299
2023-01-19T13:54:16.980Z,3.900
2023-01-19T13:55:17.335Z,3.400
2023-01-19T13:56:16.617Z,3.900
2023-01-19T13:57:17.054Z,3.599
2023-01-19T13:58:17.164Z,3.400
2023-01-19T13:59:16.778Z,3.299
2023-01-19T14:01:16.743Z,3.599
2023-01-19T14:02:16.885Z,3.200
2023-01-19T14:03:16.544Z,3.099
2023-01-19T14:04:17.178Z,3
2023-01-19T14:05:16.654Z,3.200
2023-01-19T14:06:16.843Z,3.299
2023-01-19T14:07:16.984Z,3.200
2023-01-19T14:08:17.212Z,3.5
2023-01-19T14:09:16.753Z,3.799
2023-01-19T14:10:16.862Z,3
2023-01-19T14:11:17.203Z,3.5
2023-01-19T14:12:16.506Z,3.799
2023-01-19T14:14:16.870Z,3.299
2023-01-19T14:15:17.478Z,3.599
2023-01-19T14:16:16.704Z,3.5
2023-01-19T14:17:16.964Z,3.700
2023-01-19T14:18:16.747Z,3.099
2023-01-19T14:19:16.920Z,3.599
2023-01-19T14:20:16.763Z,3.700
2023-01-19T14:21:17.416Z,3.400
2023-01-19T14:22:17.024Z,3.599
2023-01-19T14:23:17.255Z,4
2023-01-19T14:24:17.089Z,3.700
2023-01-19T14:26:17.104Z,3.900
2023-01-19T14:27:16.901Z,3.799
2023-01-19T14:28:17.137Z,3.599
2023-01-19T14:29:16.720Z,3.700
2023-01-19T14:30:17.785Z,3.599
2023-01-19T14:31:17.483Z,3.299
2023-01-19T14:32:17.311Z,3.200
2023-01-19T14:33:16.853Z,3.299
2023-01-19T14:34:16.718Z,3.400
2023-01-19T14:35:17.229Z,3.700
2023-01-19T14:36:17.983Z,3.400
2023-01-19T14:37:17.116Z,3.700
2023-01-19T14:38:17.107Z,3.400
2023-01-19T14:39:17.041Z,3.599
2023-01-19T14:40:16.400Z,3.5
2023-01-19T14:41:16.880Z,3.299
2023-01-19T14:42:17.698Z,3.5
2023-01-19T14:43:16.761Z,3.099
2023-01-19T14:44:17.317Z,3.200
2023-01-19T14:45:17.544Z,3.299
2023-01-19T14:48:18.077Z,3.200
2023-01-19T14:49:16.972Z,3
2023-01-19T14:50:16.628Z,3.400
2023-01-19T14:51:16.824Z,3.599
2023-01-19T14:52:17.700Z,3.799
2023-01-19T14:53:16.889Z,3.200
2023-01-19T14:54:16.547Z,3.299
2023-01-19T14:56:17.434Z,3.200
2023-01-19T14:57:17.045Z,3
2023-01-19T15:00:17.880Z,3.299
2023-01-19T15:01:17.039Z,3.5
2023-01-19T15:02:17.034Z,3.700
2023-01-19T15:03:16.885Z,3.5
2023-01-19T15:04:17.391Z,3.400
2023-01-19T15:05:17.606Z,3.200
2023-01-19T15:08:16.726Z,3.299
2023-01-19T15:11:16.926Z,3.200
2023-01-19T15:12:17.522Z,3.099
2023-01-19T15:13:17.173Z,3.299
2023-01-19T15:14:16.731Z,4
2023-01-19T15:15:17.327Z,4.599
2023-01-19T15:16:17.129Z,4.400
2023-01-19T15:17:16.917Z,4.199
2023-01-19T15:18:16.977Z,3.799
2023-01-19T15:19:16.754Z,4
2023-01-19T15:20:16.934Z,3.5
2023-01-19T15:21:17.359Z,3.700
2023-01-19T15:22:16.906Z,3.5